Terminal Aerodrome Forecast
Issued by NWS Albany, NY

Home | Current Version | Previous Version | Text Only | Print | Product List | Glossary On
Versions: 1 2 3 4 5 6 7 8 9 10 11 12 13 14 15 16
000
FTUS41 KALY 230537
TAFALB
TAF
KALB 230537Z 2306/2406 33008KT P6SM SCT070
      TEMPO 2306/2308 BKN070
     FM230900 30006KT P6SM SKC
     FM231300 28010KT P6SM SKC
     FM231500 27014G22KT P6SM FEW060
     FM232300 25010KT P6SM SCT100 SCT250
     FM240200 20006KT P6SM SCT100 SCT250=

USA.gov is the U.S. government's official web portal to all federal, state and local government web resources and services.